Time;durP1;ratioP1;P1;durP2;ratioP2;P2;SDS_P1;SDS_P2;PMS_P1;PMS_P2;Temp;Humidity;BMP_temperature;BMP_pressure;BME280_temperature;BME280_humidity;BME280_pressure;Samples;Min_cycle;Max_cycle;Signal;HPM_P1;HPM_P2
2022/05/06 00:01:27;;;;;;;;;;;6.90;99.90;;;;;;5098100;28;19920;-65
2022/05/06 00:03:53;;;;;;;;;;;6.80;99.90;;;;;;5100638;28;19919;-66
2022/05/06 00:06:18;;;;;;;;;;;6.80;99.90;;;;;;5101049;28;19931;-66
2022/05/06 00:08:43;;;;;;;;;;;6.90;99.90;;;;;;5096468;28;19931;-66
2022/05/06 00:11:09;;;;;;;;;;;6.80;99.90;;;;;;5099485;28;19950;-65
2022/05/06 00:13:35;;;;;;;;;;;6.80;99.90;;;;;;5099495;28;20060;-65
2022/05/06 00:16:03;;;;;;;;;;;6.70;99.90;;;;;;5100443;28;19920;-66
2022/05/06 00:18:31;;;;;;;;;;;6.70;99.90;;;;;;5088878;28;19926;-65
2022/05/06 00:20:59;;;;;;;;;;;6.70;99.90;;;;;;5086676;28;19920;-65
2022/05/06 00:23:25;;;;;;;;;;;6.60;99.90;;;;;;5086645;28;19916;-65
2022/05/06 00:25:50;;;;;;;;;;;6.60;99.90;;;;;;5086463;28;19927;-65
2022/05/06 00:28:16;;;;;;;;;;;6.50;99.90;;;;;;5086437;28;19980;-65
2022/05/06 00:30:42;;;;;;;;;;;6.50;99.90;;;;;;5086074;28;19942;-66
2022/05/06 00:33:09;;;;;;;;;;;6.40;99.90;;;;;;5082217;28;19916;-67
2022/05/06 00:35:36;;;;;;;;;;;6.50;99.90;;;;;;5086669;28;19920;-67
2022/05/06 00:38:02;;;;;;;;;;;6.40;99.90;;;;;;5078138;28;20379;-65
2022/05/06 00:40:28;;;;;;;;;;;6.40;99.90;;;;;;5097410;28;19922;-65
2022/05/06 00:42:55;;;;;;;;;;;6.40;99.90;;;;;;5105551;28;19919;-65
2022/05/06 00:45:21;;;;;;;;;;;6.40;99.90;;;;;;5068091;28;19928;-65
2022/05/06 00:47:47;;;;;;;;;;;6.40;99.90;;;;;;5066404;28;19912;-65
2022/05/06 00:50:12;;;;;;;;;;;6.40;99.90;;;;;;5070454;28;19927;-65
2022/05/06 00:52:39;;;;;;;;;;;6.30;99.90;;;;;;5066275;28;19927;-65
2022/05/06 00:55:04;;;;;;;;;;;6.40;99.90;;;;;;5083237;28;20433;-65
2022/05/06 00:57:30;;;;;;;;;;;6.30;99.90;;;;;;5099172;27;19923;-66
2022/05/06 01:02:40;;;;;;;;;;;6.30;99.90;;;;;;5063736;28;19932;-65
2022/05/06 01:05:07;;;;;;;;;;;6.30;99.90;;;;;;5069552;28;19928;-65
2022/05/06 01:07:33;;;;;;;;;;;6.20;99.90;;;;;;5073079;28;19927;-65
2022/05/06 01:09:59;;;;;;;;;;;6.10;99.90;;;;;;5077538;28;19920;-65
2022/05/06 01:12:24;;;;;;;;;;;6.00;99.90;;;;;;5068095;28;20629;-65
2022/05/06 01:14:50;;;;;;;;;;;6.00;99.90;;;;;;5074196;28;20698;-66
2022/05/06 01:17:16;;;;;;;;;;;6.10;99.90;;;;;;5086229;28;19916;-66
2022/05/06 01:19:41;;;;;;;;;;;6.10;99.90;;;;;;5081470;28;19919;-65
2022/05/06 01:22:07;;;;;;;;;;;6.10;99.90;;;;;;5083963;28;19916;-66
2022/05/06 01:24:32;;;;;;;;;;;6.00;99.90;;;;;;5075142;28;19920;-66
2022/05/06 01:27:03;;;;;;;;;;;6.00;99.90;;;;;;5097238;28;19963;-65
2022/05/06 01:29:31;;;;;;;;;;;5.90;99.90;;;;;;5092582;28;20586;-65
2022/05/06 01:31:57;;;;;;;;;;;5.90;99.90;;;;;;5063856;28;19973;-65
2022/05/06 01:34:23;;;;;;;;;;;5.80;99.90;;;;;;5068290;28;19927;-66
2022/05/06 01:36:50;;;;;;;;;;;5.80;99.90;;;;;;5066777;28;19923;-66
2022/05/06 01:39:18;;;;;;;;;;;5.90;99.90;;;;;;5074319;28;20221;-66
2022/05/06 01:41:45;;;;;;;;;;;5.80;99.90;;;;;;5086181;28;20007;-67
2022/05/06 01:44:12;;;;;;;;;;;5.80;99.90;;;;;;5083025;28;19916;-66
2022/05/06 01:46:38;;;;;;;;;;;5.80;99.90;;;;;;5066691;28;20402;-64
2022/05/06 01:49:04;;;;;;;;;;;5.80;99.90;;;;;;5068929;28;19967;-66
2022/05/06 01:51:30;;;;;;;;;;;5.70;99.90;;;;;;5069536;28;19927;-67
2022/05/06 01:53:55;;;;;;;;;;;5.80;99.90;;;;;;5066256;28;19923;-67
2022/05/06 01:56:21;;;;;;;;;;;5.70;99.90;;;;;;5069770;28;20474;-68
2022/05/06 01:58:47;;;;;;;;;;;5.70;99.90;;;;;;5073082;28;19974;-67
2022/05/06 02:01:13;;;;;;;;;;;5.70;99.90;;;;;;5078329;28;19916;-67
2022/05/06 02:06:22;;;;;;;;;;;5.60;99.90;;;;;;5081009;28;20002;-67
2022/05/06 02:08:48;;;;;;;;;;;5.60;99.90;;;;;;5087738;28;20061;-67
2022/05/06 02:11:14;;;;;;;;;;;5.60;99.90;;;;;;5091232;28;20379;-67
2022/05/06 02:13:40;;;;;;;;;;;5.60;99.90;;;;;;5084664;28;19916;-66
2022/05/06 02:16:06;;;;;;;;;;;5.60;99.90;;;;;;5072307;28;19927;-66
2022/05/06 02:18:31;;;;;;;;;;;5.60;99.90;;;;;;5078958;28;20492;-67
2022/05/06 02:20:58;;;;;;;;;;;5.60;99.90;;;;;;5085491;28;19963;-67
2022/05/06 02:23:24;;;;;;;;;;;5.60;99.90;;;;;;5073971;28;20081;-67
2022/05/06 02:25:50;;;;;;;;;;;5.50;99.90;;;;;;5070445;28;20506;-67
2022/05/06 02:28:16;;;;;;;;;;;5.50;99.90;;;;;;5084446;28;19989;-67
2022/05/06 02:33:26;;;;;;;;;;;5.50;99.90;;;;;;5065795;28;19916;-67
2022/05/06 02:35:52;;;;;;;;;;;5.40;99.90;;;;;;5074548;28;19947;-67
2022/05/06 02:38:19;;;;;;;;;;;5.50;99.90;;;;;;5078856;28;19923;-67
2022/05/06 02:40:44;;;;;;;;;;;5.50;99.90;;;;;;5073685;28;20558;-67
2022/05/06 02:43:10;;;;;;;;;;;5.40;99.90;;;;;;5084487;28;19990;-67
2022/05/06 02:45:35;;;;;;;;;;;5.40;99.90;;;;;;5079169;28;19938;-67
2022/05/06 02:48:01;;;;;;;;;;;5.40;99.90;;;;;;5084607;28;20019;-67
2022/05/06 02:50:27;;;;;;;;;;;5.40;99.90;;;;;;5079564;28;19917;-67
2022/05/06 02:52:52;;;;;;;;;;;5.40;99.90;;;;;;5084116;28;19946;-67
2022/05/06 02:55:19;;;;;;;;;;;5.30;99.90;;;;;;5073420;28;19920;-67
2022/05/06 02:57:44;;;;;;;;;;;5.40;99.90;;;;;;5083417;28;19920;-67
2022/05/06 03:00:11;;;;;;;;;;;5.40;99.90;;;;;;5082504;28;19965;-67
2022/05/06 03:02:36;;;;;;;;;;;5.30;99.90;;;;;;5080318;28;20445;-67
2022/05/06 03:05:02;;;;;;;;;;;5.30;99.90;;;;;;5084436;28;19916;-67
2022/05/06 03:07:28;;;;;;;;;;;5.30;99.90;;;;;;5072079;28;20291;-67
2022/05/06 03:09:53;;;;;;;;;;;5.30;99.90;;;;;;5066185;28;19979;-67
2022/05/06 03:12:26;;;;;;;;;;;5.30;99.90;;;;;;5066801;28;20650;-67
2022/05/06 03:14:52;;;;;;;;;;;5.40;99.90;;;;;;5063255;28;20034;-67
2022/05/06 03:17:17;;;;;;;;;;;5.40;99.90;;;;;;5077133;28;19920;-67
2022/05/06 03:19:43;;;;;;;;;;;5.40;99.90;;;;;;5085186;28;19916;-66
2022/05/06 03:22:08;;;;;;;;;;;5.40;99.90;;;;;;5077783;28;19981;-67
2022/05/06 03:24:34;;;;;;;;;;;5.40;99.90;;;;;;5064563;28;19928;-66
2022/05/06 03:27:00;;;;;;;;;;;5.40;99.90;;;;;;5067752;28;19920;-67
2022/05/06 03:29:25;;;;;;;;;;;5.40;99.90;;;;;;5063756;28;19920;-67
2022/05/06 03:31:51;;;;;;;;;;;5.30;99.90;;;;;;5066462;28;19916;-66
2022/05/06 03:34:17;;;;;;;;;;;5.30;99.90;;;;;;5063459;28;19920;-67
2022/05/06 03:36:43;;;;;;;;;;;5.30;99.90;;;;;;5068761;28;20053;-66
2022/05/06 03:39:08;;;;;;;;;;;5.30;99.90;;;;;;5076628;28;19961;-67
2022/05/06 03:41:34;;;;;;;;;;;5.40;99.90;;;;;;5069069;28;20025;-67
2022/05/06 03:44:00;;;;;;;;;;;5.30;99.90;;;;;;5072502;28;20376;-67
2022/05/06 03:46:25;;;;;;;;;;;5.30;99.90;;;;;;5072148;28;20385;-67
2022/05/06 03:48:51;;;;;;;;;;;5.30;99.90;;;;;;5071925;28;19917;-66
2022/05/06 03:51:23;;;;;;;;;;;5.30;99.90;;;;;;5070121;28;19923;-67
2022/05/06 03:53:52;;;;;;;;;;;5.30;99.90;;;;;;5073916;28;19924;-66
2022/05/06 03:56:18;;;;;;;;;;;5.30;99.90;;;;;;5076220;28;20035;-67
2022/05/06 03:58:44;;;;;;;;;;;5.30;99.90;;;;;;5074564;28;19923;-67
2022/05/06 04:01:10;;;;;;;;;;;5.40;99.90;;;;;;5073982;28;19946;-67
2022/05/06 04:03:36;;;;;;;;;;;5.50;99.90;;;;;;5074945;28;20624;-67
2022/05/06 04:06:02;;;;;;;;;;;5.60;99.90;;;;;;5079320;28;19923;-67
2022/05/06 04:08:27;;;;;;;;;;;5.60;99.90;;;;;;5072844;28;20691;-70
2022/05/06 04:10:53;;;;;;;;;;;5.70;99.90;;;;;;5075128;28;20462;-67
2022/05/06 04:13:19;;;;;;;;;;;5.80;99.90;;;;;;5077933;28;20608;-67
2022/05/06 04:15:48;;;;;;;;;;;5.90;99.90;;;;;;5072389;28;19916;-68
2022/05/06 04:18:14;;;;;;;;;;;6.10;99.90;;;;;;5070074;28;19916;-67
2022/05/06 04:23:29;;;;;;;;;;;6.30;99.90;;;;;;5079221;28;19920;-65
2022/05/06 04:25:59;;;;;;;;;;;6.40;99.90;;;;;;5079299;28;19963;-65
2022/05/06 04:28:25;;;;;;;;;;;6.70;99.90;;;;;;5068664;28;19951;-66
2022/05/06 04:30:53;;;;;;;;;;;7.30;99.90;;;;;;5066736;28;19916;-64
2022/05/06 04:33:19;;;;;;;;;;;7.50;99.90;;;;;;5069241;28;19989;-64
2022/05/06 04:35:45;;;;;;;;;;;7.40;99.90;;;;;;5065497;28;19916;-64
2022/05/06 04:38:11;;;;;;;;;;;7.20;99.90;;;;;;5068208;28;19920;-64
2022/05/06 04:40:37;;;;;;;;;;;7.20;99.90;;;;;;5078842;28;19962;-65
2022/05/06 04:43:06;;;;;;;;;;;7.40;99.90;;;;;;5081436;28;19955;-65
2022/05/06 04:45:35;;;;;;;;;;;7.80;99.90;;;;;;5083930;28;19926;-66
2022/05/06 04:48:01;;;;;;;;;;;7.70;99.90;;;;;;5081428;28;20283;-65
2022/05/06 04:50:27;;;;;;;;;;;7.90;99.90;;;;;;5084798;28;19916;-68
2022/05/06 04:52:53;;;;;;;;;;;8.30;99.90;;;;;;5080577;28;20640;-68
2022/05/06 04:55:19;;;;;;;;;;;8.80;99.90;;;;;;5074580;28;20000;-68
2022/05/06 04:57:44;;;;;;;;;;;9.40;99.90;;;;;;5068828;28;20006;-67
2022/05/06 05:00:10;;;;;;;;;;;10.20;99.90;;;;;;5064991;28;19916;-69
2022/05/06 05:02:37;;;;;;;;;;;11.20;99.90;;;;;;5067595;28;19976;-65
2022/05/06 05:05:03;;;;;;;;;;;11.90;98.70;;;;;;5065232;28;19923;-73
2022/05/06 05:07:29;;;;;;;;;;;12.10;98.50;;;;;;5069826;28;19924;-64
2022/05/06 05:09:54;;;;;;;;;;;12.30;97.30;;;;;;5071007;28;19976;-65
2022/05/06 05:12:20;;;;;;;;;;;12.50;97.20;;;;;;5072300;28;20490;-64
2022/05/06 05:14:45;;;;;;;;;;;12.90;96.60;;;;;;5064296;28;20049;-64
2022/05/06 05:17:11;;;;;;;;;;;13.50;95.60;;;;;;5063505;28;20125;-64
2022/05/06 05:19:37;;;;;;;;;;;14.00;94.60;;;;;;5068216;28;19924;-64
2022/05/06 05:22:03;;;;;;;;;;;14.10;94.20;;;;;;5065138;28;20509;-63
2022/05/06 05:24:28;;;;;;;;;;;13.70;93.90;;;;;;5070597;28;19982;-68
2022/05/06 05:26:54;;;;;;;;;;;13.20;94.30;;;;;;5065850;28;19959;-64
2022/05/06 05:29:20;;;;;;;;;;;12.90;95.30;;;;;;5069421;28;19938;-64
2022/05/06 05:31:45;;;;;;;;;;;13.10;96.60;;;;;;5064181;28;20014;-64
2022/05/06 05:34:11;;;;;;;;;;;13.70;95.00;;;;;;5069089;28;19965;-65
2022/05/06 05:36:36;;;;;;;;;;;13.60;94.60;;;;;;5064557;28;20446;-65
2022/05/06 05:39:02;;;;;;;;;;;13.80;94.60;;;;;;5077833;28;19920;-66
2022/05/06 05:41:27;;;;;;;;;;;14.20;92.50;;;;;;5081326;28;19920;-66
2022/05/06 05:49:32;;;;;;;;;;;16.40;89.10;;;;;;5036090;28;19921;-66
2022/05/06 05:51:57;;;;;;;;;;;16.70;87.60;;;;;;5064334;28;20598;-65
2022/05/06 05:54:23;;;;;;;;;;;16.60;88.60;;;;;;5073767;28;20291;-65
2022/05/06 05:56:49;;;;;;;;;;;17.10;87.50;;;;;;5064303;28;19917;-67
2022/05/06 05:59:14;;;;;;;;;;;17.30;86.60;;;;;;5067676;28;20432;-65
2022/05/06 06:01:40;;;;;;;;;;;18.10;82.70;;;;;;5073813;28;19969;-65
2022/05/06 06:04:05;;;;;;;;;;;18.90;81.70;;;;;;5076006;28;20008;-65
2022/05/06 06:06:31;;;;;;;;;;;18.80;77.80;;;;;;5066366;28;19920;-66
2022/05/06 06:08:56;;;;;;;;;;;18.10;82.70;;;;;;5074024;28;19963;-66
2022/05/06 06:11:22;;;;;;;;;;;17.60;81.50;;;;;;5081286;28;19976;-64
2022/05/06 06:13:47;;;;;;;;;;;17.20;84.00;;;;;;5079157;28;20478;-64
2022/05/06 06:16:14;;;;;;;;;;;17.30;84.50;;;;;;5083726;28;20529;-64
2022/05/06 06:18:44;;;;;;;;;;;18.40;80.50;;;;;;5081033;28;20402;-64
2022/05/06 06:21:09;;;;;;;;;;;20.00;77.70;;;;;;5083992;28;19916;-64
2022/05/06 06:23:35;;;;;;;;;;;20.60;73.50;;;;;;5081014;28;19950;-65
2022/05/06 06:26:00;;;;;;;;;;;20.50;70.20;;;;;;5077546;28;20318;-67
2022/05/06 06:28:26;;;;;;;;;;;20.50;73.80;;;;;;5082146;28;20060;-64
2022/05/06 06:30:51;;;;;;;;;;;19.40;73.80;;;;;;5077869;28;19924;-64
2022/05/06 06:33:17;;;;;;;;;;;18.50;77.40;;;;;;5083408;28;19916;-64
2022/05/06 06:35:42;;;;;;;;;;;18.40;77.20;;;;;;5079199;28;19923;-64
2022/05/06 06:38:08;;;;;;;;;;;18.40;82.20;;;;;;5077769;28;19926;-63
2022/05/06 06:40:34;;;;;;;;;;;18.20;81.70;;;;;;5065299;28;19923;-65
2022/05/06 06:43:01;;;;;;;;;;;18.70;79.50;;;;;;5062255;28;19916;-63
2022/05/06 06:45:27;;;;;;;;;;;19.40;78.90;;;;;;5066823;28;19923;-64
2022/05/06 06:47:53;;;;;;;;;;;19.80;76.70;;;;;;5063530;28;19920;-65
2022/05/06 06:50:19;;;;;;;;;;;21.10;71.70;;;;;;5067084;28;19917;-64
2022/05/06 06:52:44;;;;;;;;;;;22.50;65.40;;;;;;5063192;28;19923;-64
2022/05/06 06:55:10;;;;;;;;;;;23.00;62.40;;;;;;5070995;28;19923;-64
2022/05/06 06:57:35;;;;;;;;;;;23.30;63.80;;;;;;5084576;28;19919;-64
2022/05/06 07:00:01;;;;;;;;;;;23.80;59.50;;;;;;5081658;28;19966;-65
2022/05/06 07:02:27;;;;;;;;;;;24.80;55.70;;;;;;5081955;28;19916;-65
2022/05/06 07:04:53;;;;;;;;;;;24.70;49.00;;;;;;5080528;28;19938;-64
2022/05/06 07:12:47;;;;;;;;;;;24.30;51.90;;;;;;5084040;28;19916;-64
2022/05/06 07:15:13;;;;;;;;;;;23.70;49.00;;;;;;5079735;28;19923;-64
2022/05/06 07:17:38;;;;;;;;;;;23.90;49.80;;;;;;5083712;28;20623;-64
2022/05/06 07:20:04;;;;;;;;;;;23.40;51.40;;;;;;5069032;28;19966;-64
2022/05/06 07:22:29;;;;;;;;;;;22.60;50.00;;;;;;5081176;28;19966;-64
2022/05/06 07:24:55;;;;;;;;;;;22.00;51.00;;;;;;5078902;28;19917;-64
2022/05/06 07:27:21;;;;;;;;;;;21.60;52.10;;;;;;5063567;28;19974;-63
2022/05/06 07:29:46;;;;;;;;;;;21.40;50.10;;;;;;5070407;28;19920;-63
2022/05/06 07:32:12;;;;;;;;;;;20.80;52.30;;;;;;5084842;28;20622;-64
2022/05/06 07:34:37;;;;;;;;;;;20.50;54.30;;;;;;5086915;28;20378;-64
2022/05/06 07:37:03;;;;;;;;;;;20.60;54.70;;;;;;5083615;28;19920;-65
2022/05/06 07:39:29;;;;;;;;;;;20.20;55.70;;;;;;5080186;28;19920;-64
2022/05/06 07:41:54;;;;;;;;;;;19.70;56.60;;;;;;5081968;28;20346;-64
2022/05/06 07:44:20;;;;;;;;;;;19.20;55.20;;;;;;5086437;28;19961;-64
2022/05/06 07:46:45;;;;;;;;;;;19.10;55.90;;;;;;5082073;28;19923;-63
2022/05/06 07:49:11;;;;;;;;;;;18.60;56.70;;;;;;5087051;28;19969;-65
2022/05/06 07:51:36;;;;;;;;;;;19.50;58.00;;;;;;5080945;28;19968;-65
2022/05/06 07:54:03;;;;;;;;;;;20.40;56.10;;;;;;5086643;28;20443;-64
2022/05/06 07:56:29;;;;;;;;;;;20.90;50.80;;;;;;5070653;28;19920;-65
2022/05/06 07:58:54;;;;;;;;;;;21.90;52.20;;;;;;5067659;28;20325;-64
2022/05/06 08:04:32;;;;;;;;;;;22.00;49.20;;;;;;5074198;28;19916;-65
2022/05/06 08:06:53;;;;;;;;;;;23.20;47.80;;;;;;5070664;28;19920;-66
2022/05/06 08:09:20;;;;;;;;;;;24.00;45.70;;;;;;5075086;28;19926;-64
2022/05/06 08:11:46;;;;;;;;;;;24.20;43.80;;;;;;5081846;28;19922;-64
2022/05/06 08:14:12;;;;;;;;;;;24.00;47.30;;;;;;5087347;28;19912;-64
2022/05/06 08:16:38;;;;;;;;;;;24.60;45.90;;;;;;5081320;28;19920;-64
2022/05/06 08:19:03;;;;;;;;;;;25.10;44.70;;;;;;5086549;28;19920;-64
2022/05/06 08:21:29;;;;;;;;;;;25.70;44.70;;;;;;5081846;28;19916;-64
2022/05/06 08:23:54;;;;;;;;;;;24.60;42.60;;;;;;5086647;28;19930;-64
2022/05/06 08:26:20;;;;;;;;;;;24.60;46.40;;;;;;5081523;28;19916;-63
2022/05/06 08:28:45;;;;;;;;;;;25.00;43.30;;;;;;5085636;28;19924;-63
2022/05/06 08:31:11;;;;;;;;;;;25.20;44.00;;;;;;5078362;28;19912;-64
2022/05/06 08:33:36;;;;;;;;;;;25.70;42.40;;;;;;5085761;28;19920;-64
2022/05/06 08:36:04;;;;;;;;;;;25.10;42.00;;;;;;5081970;28;19921;-63
2022/05/06 08:38:30;;;;;;;;;;;23.60;42.30;;;;;;5077933;28;20283;-64
2022/05/06 08:40:56;;;;;;;;;;;22.50;46.60;;;;;;5071390;28;19924;-64
2022/05/06 08:43:21;;;;;;;;;;;22.90;46.50;;;;;;5085124;28;20062;-63
2022/05/06 08:51:20;;;;;;;;;;;19.70;51.80;;;;;;5081413;28;19917;-63
2022/05/06 08:53:45;;;;;;;;;;;19.20;54.80;;;;;;5085777;28;19916;-64
2022/05/06 08:56:11;;;;;;;;;;;18.90;53.40;;;;;;5072034;28;19935;-67
2022/05/06 08:58:37;;;;;;;;;;;18.70;53.30;;;;;;5080480;28;19919;-62
2022/05/06 09:01:06;;;;;;;;;;;18.60;55.60;;;;;;5084708;28;19916;-63
2022/05/06 09:03:32;;;;;;;;;;;18.70;56.30;;;;;;5065463;28;19982;-63
2022/05/06 09:06:04;;;;;;;;;;;18.80;59.20;;;;;;5065705;28;20388;-63
2022/05/06 09:08:43;;;;;;;;;;;18.60;59.40;;;;;;5068253;28;19917;-63
2022/05/06 09:11:11;;;;;;;;;;;18.70;57.80;;;;;;5069552;28;19921;-63
2022/05/06 09:13:57;;;;;;;;;;;18.70;59.90;;;;;;5068319;28;19917;-63
2022/05/06 09:16:39;;;;;;;;;;;18.50;62.70;;;;;;5067115;28;19924;-63
2022/05/06 09:19:20;;;;;;;;;;;18.20;60.20;;;;;;5065796;28;20369;-63
2022/05/06 09:22:02;;;;;;;;;;;17.80;60.00;;;;;;5071076;28;19920;-63
2022/05/06 09:24:28;;;;;;;;;;;17.50;59.40;;;;;;5065631;28;19974;-63
2022/05/06 09:27:15;;;;;;;;;;;17.50;59.90;;;;;;5072950;28;20021;-63
2022/05/06 09:29:48;;;;;;;;;;;17.30;61.80;;;;;;5073645;28;19916;-63
2022/05/06 09:32:29;;;;;;;;;;;17.60;56.80;;;;;;5066622;28;19915;-63
2022/05/06 09:35:10;;;;;;;;;;;17.80;58.30;;;;;;5064674;28;20172;-62
2022/05/06 09:37:44;;;;;;;;;;;17.80;57.30;;;;;;5072443;28;19932;-63
2022/05/06 09:40:12;;;;;;;;;;;17.80;57.30;;;;;;5070862;28;19938;-63
2022/05/06 09:42:45;;;;;;;;;;;17.70;58.30;;;;;;5068811;28;19956;-63
2022/05/06 09:45:13;;;;;;;;;;;17.80;58.90;;;;;;5085007;28;19938;-64
2022/05/06 09:47:40;;;;;;;;;;;18.20;60.10;;;;;;5076867;28;19924;-64
2022/05/06 09:50:07;;;;;;;;;;;18.00;59.20;;;;;;5063856;28;19920;-64
2022/05/06 09:52:35;;;;;;;;;;;17.70;63.70;;;;;;5068762;28;19926;-64
2022/05/06 09:55:06;;;;;;;;;;;17.30;58.40;;;;;;5070157;28;19976;-64
2022/05/06 09:57:35;;;;;;;;;;;17.00;59.60;;;;;;5080310;28;20007;-64
2022/05/06 10:00:04;;;;;;;;;;;16.80;58.20;;;;;;5075336;28;19924;-64
2022/05/06 10:02:31;;;;;;;;;;;16.90;58.60;;;;;;5068973;28;19946;-64
2022/05/06 10:04:56;;;;;;;;;;;17.10;57.20;;;;;;5064181;28;20410;-64
2022/05/06 10:07:25;;;;;;;;;;;17.30;57.60;;;;;;5068771;28;20007;-64
2022/05/06 10:09:58;;;;;;;;;;;17.50;57.20;;;;;;5073649;28;20350;-64
2022/05/06 10:12:25;;;;;;;;;;;17.60;56.90;;;;;;5066432;28;19916;-64
2022/05/06 10:14:52;;;;;;;;;;;17.90;56.80;;;;;;5066078;28;19955;-65
2022/05/06 10:17:36;;;;;;;;;;;17.70;58.20;;;;;;5064496;28;19927;-64
2022/05/06 10:20:02;;;;;;;;;;;17.60;58.50;;;;;;5064913;28;19984;-64
2022/05/06 10:22:46;;;;;;;;;;;17.30;61.20;;;;;;5065236;28;19928;-64
2022/05/06 10:25:31;;;;;;;;;;;17.10;65.50;;;;;;5063970;28;19923;-64
2022/05/06 10:34:15;;;;;;;;;;;17.40;64.60;;;;;;5067609;28;19916;-64
2022/05/06 10:36:41;;;;;;;;;;;17.40;62.20;;;;;;5066375;28;19921;-64
2022/05/06 10:39:25;;;;;;;;;;;17.20;63.70;;;;;;5076925;28;19924;-64
2022/05/06 10:42:00;;;;;;;;;;;17.30;62.20;;;;;;5064113;28;19959;-64
2022/05/06 10:44:38;;;;;;;;;;;17.30;60.70;;;;;;5070095;28;19916;-64
2022/05/06 10:47:12;;;;;;;;;;;17.40;59.50;;;;;;5063904;28;19963;-64
2022/05/06 10:49:38;;;;;;;;;;;17.40;59.10;;;;;;5067930;28;19913;-64
2022/05/06 10:52:15;;;;;;;;;;;17.20;60.50;;;;;;5064544;28;19916;-64
2022/05/06 10:54:41;;;;;;;;;;;17.20;62.10;;;;;;5068482;28;19919;-64
2022/05/06 10:57:07;;;;;;;;;;;17.50;64.30;;;;;;5064443;28;19920;-64
2022/05/06 10:59:51;;;;;;;;;;;17.50;63.40;;;;;;5068139;28;20011;-64
2022/05/06 11:02:17;;;;;;;;;;;17.50;58.80;;;;;;5061720;28;19973;-63
2022/05/06 11:04:49;;;;;;;;;;;17.70;61.60;;;;;;5067487;28;19920;-64
2022/05/06 11:07:17;;;;;;;;;;;17.70;57.40;;;;;;5068551;28;19916;-65
2022/05/06 11:09:42;;;;;;;;;;;18.00;59.50;;;;;;5075810;28;19916;-64
2022/05/06 11:12:08;;;;;;;;;;;18.30;59.60;;;;;;5063462;28;19923;-64
2022/05/06 11:14:33;;;;;;;;;;;18.30;57.00;;;;;;5066739;28;20304;-64
2022/05/06 11:17:15;;;;;;;;;;;18.60;56.60;;;;;;5062762;28;19986;-64
2022/05/06 11:19:41;;;;;;;;;;;18.40;53.90;;;;;;5073634;28;20520;-64
2022/05/06 11:22:10;;;;;;;;;;;18.20;57.30;;;;;;5067864;28;20053;-64
2022/05/06 11:24:35;;;;;;;;;;;18.20;58.00;;;;;;5069081;28;19923;-64
2022/05/06 11:27:11;;;;;;;;;;;18.30;57.30;;;;;;5084262;28;19920;-63
2022/05/06 11:29:55;;;;;;;;;;;18.20;56.40;;;;;;5078810;28;20434;-65
2022/05/06 11:32:24;;;;;;;;;;;18.20;58.40;;;;;;5082144;28;19916;-66
2022/05/06 11:35:09;;;;;;;;;;;18.20;57.80;;;;;;5077967;28;19963;-64
2022/05/06 11:37:35;;;;;;;;;;;18.10;58.30;;;;;;5077085;28;19929;-65
2022/05/06 11:40:32;;;;;;;;;;;18.20;57.60;;;;;;5067589;28;19967;-63
2022/05/06 11:42:58;;;;;;;;;;;18.30;56.80;;;;;;5062911;28;19959;-64
2022/05/06 11:48:09;;;;;;;;;;;18.30;58.30;;;;;;5062782;28;19924;-63
2022/05/06 11:50:36;;;;;;;;;;;18.40;55.30;;;;;;5074237;28;20014;-63
2022/05/06 11:53:09;;;;;;;;;;;18.30;55.70;;;;;;5081372;28;19920;-63
2022/05/06 11:55:35;;;;;;;;;;;18.30;55.90;;;;;;5067887;28;20073;-63
2022/05/06 11:58:01;;;;;;;;;;;18.50;55.20;;;;;;5061811;28;19917;-63
2022/05/06 12:00:28;;;;;;;;;;;18.30;60.80;;;;;;5064676;28;19919;-63
2022/05/06 12:02:54;;;;;;;;;;;18.20;56.60;;;;;;5065281;28;20288;-63
2022/05/06 12:05:19;;;;;;;;;;;18.00;60.30;;;;;;5068804;28;19921;-63
2022/05/06 12:07:46;;;;;;;;;;;18.00;59.80;;;;;;5071396;28;19920;-63
2022/05/06 12:10:27;;;;;;;;;;;18.00;61.60;;;;;;5073568;28;20004;-63
2022/05/06 12:12:54;;;;;;;;;;;18.10;59.60;;;;;;5083531;28;20516;-63
2022/05/06 12:15:20;;;;;;;;;;;18.20;58.70;;;;;;5084635;28;19920;-63
2022/05/06 12:17:45;;;;;;;;;;;18.50;58.10;;;;;;5087901;28;20030;-63
2022/05/06 12:20:30;;;;;;;;;;;18.80;56.10;;;;;;5082448;28;19916;-63
2022/05/06 12:22:58;;;;;;;;;;;19.10;62.00;;;;;;5087096;28;19945;-63
2022/05/06 12:25:24;;;;;;;;;;;19.60;56.70;;;;;;5081600;28;19920;-63
2022/05/06 12:28:02;;;;;;;;;;;19.50;56.30;;;;;;5086833;28;19912;-61
2022/05/06 12:30:29;;;;;;;;;;;19.30;56.50;;;;;;5081514;28;19916;-63
2022/05/06 12:33:04;;;;;;;;;;;19.10;58.00;;;;;;5086730;28;19926;-64
2022/05/06 12:35:30;;;;;;;;;;;;;;;;;;5082156;28;20418;-63
2022/05/06 12:37:56;;;;;;;;;;;;;;;;;;5080437;28;19924;-65
2022/05/06 12:40:22;;;;;;;;;;;;;;;;;;5073472;28;19919;-64
2022/05/06 12:42:47;;;;;;;;;;;;;;;;;;5067590;28;20347;-64
2022/05/06 12:45:14;;;;;;;;;;;;;;;;;;5071024;28;19963;-65
2022/05/06 12:50:25;;;;;;;;;;;;;;;;;;5070096;28;19916;-66
2022/05/06 12:52:50;;;;;;;;;;;;;;;;;;5067299;28;20422;-66
2022/05/06 12:55:16;;;;;;;;;;;;;;;;;;5066295;28;20630;-64
2022/05/06 12:57:43;;;;;;;;;;;;;;;;;;5083164;28;19924;-65
2022/05/06 13:00:09;;;;;;;;;;;;;;;;;;5065617;28;20017;-64
2022/05/06 13:02:36;;;;;;;;;;;;;;;;;;5082927;28;19958;-64
2022/05/06 13:05:02;;;;;;;;;;;;;;;;;;5085680;28;20569;-64
2022/05/06 13:07:27;;;;;;;;;;;;;;;;;;5077302;28;19995;-63
2022/05/06 13:09:54;;;;;;;;;;;;;;;;;;5077714;28;19947;-64
2022/05/06 13:12:19;;;;;;;;;;;;;;;;;;5082387;28;19934;-63
2022/05/06 13:14:45;;;;;;;;;;;;;;;;;;5085971;28;20749;-63
2022/05/06 13:17:11;;;;;;;;;;;;;;;;;;5081200;28;19927;-64
2022/05/06 13:19:37;;;;;;;;;;;;;;;;;;5085705;28;20014;-64
2022/05/06 13:22:03;;;;;;;;;;;;;;;;;;5082023;28;20011;-64
2022/05/06 13:24:29;;;;;;;;;;;;;;;;;;5082278;28;20015;-64
2022/05/06 13:26:55;;;;;;;;;;;;;;;;;;5075846;28;19920;-63
2022/05/06 13:29:21;;;;;;;;;;;;;;;;;;5065681;28;20599;-64
2022/05/06 13:31:47;;;;;;;;;;;;;;;;;;5064184;28;19951;-64
2022/05/06 13:34:13;;;;;;;;;;;;;;;;;;5066204;28;20355;-65
2022/05/06 13:36:39;;;;;;;;;;;;;;;;;;5067169;28;19950;-63
2022/05/06 13:39:05;;;;;;;;;;;;;;;;;;5084410;28;20586;-65
2022/05/06 13:41:31;;;;;;;;;;;;;;;;;;5068652;28;20360;-64
2022/05/06 13:43:57;;;;;;;;;;;;;;;;;;5065629;28;19953;-65
2022/05/06 13:46:23;;;;;;;;;;;;;;;;;;5071870;28;19954;-64
2022/05/06 13:48:49;;;;;;;;;;;;;;;;;;5079556;28;19916;-65
2022/05/06 13:51:15;;;;;;;;;;;;;;;;;;5080203;28;19923;-64
2022/05/06 13:53:41;;;;;;;;;;;;;;;;;;5086059;28;20398;-64
2022/05/06 13:59:04;;;;;;;;;;;;;;;;;;5072073;28;19920;-64
2022/05/06 14:01:30;;;;;;;;;;;;;;;;;;5072125;28;19920;-64
2022/05/06 14:03:56;;;;;;;;;;;;;;;;;;5073540;28;20018;-65
2022/05/06 14:06:22;;;;;;;;;;;;;;;;;;5069150;28;20539;-64
2022/05/06 14:08:48;;;;;;;;;;;;;;;;;;5070005;28;19920;-64
2022/05/06 14:11:16;;;;;;;;;;;;;;;;;;5078182;28;19920;-65
2022/05/06 14:13:42;;;;;;;;;;;;;;;;;;5082350;28;20408;-65
2022/05/06 14:16:08;;;;;;;;;;;;;;;;;;5086449;28;20373;-65
2022/05/06 14:18:34;;;;;;;;;;;;;;;;;;5080646;28;19943;-65
2022/05/06 14:21:00;;;;;;;;;;;;;;;;;;5083921;28;19916;-64
2022/05/06 14:23:26;;;;;;;;;;;;;;;;;;5069775;28;20529;-65
2022/05/06 14:25:52;;;;;;;;;;;;;;;;;;5063444;28;19928;-67
2022/05/06 14:28:18;;;;;;;;;;;;;;;;;;5068055;28;19920;-66
2022/05/06 14:30:44;;;;;;;;;;;;;;;;;;5062505;28;20437;-65
2022/05/06 14:33:10;;;;;;;;;;;;;;;;;;5067865;28;19934;-64
2022/05/06 14:35:37;;;;;;;;;;;;;;;;;;5064642;28;19924;-65
2022/05/06 14:38:03;;;;;;;;;;;;;;;;;;5067316;28;19928;-65
2022/05/06 14:40:29;;;;;;;;;;;;;;;;;;5069768;28;20061;-65
2022/05/06 14:43:42;;;;;;;6.67;2.10;;;18.50;58.60;;;;;;5119466;27;20302;-63
2022/05/06 14:46:11;;;;;;;4.05;1.58;;;18.40;57.40;;;;;;5042892;27;20396;-66
2022/05/06 14:48:36;;;;;;;3.83;1.63;;;18.30;59.70;;;;;;5055633;28;20036;-67
2022/05/06 14:51:02;;;;;;;;;;;18.30;59.30;;;;;;5058721;28;20432;-66
2022/05/06 14:53:27;;;;;;;7.15;1.98;;;18.30;57.80;;;;;;5055061;28;19917;-67
2022/05/06 14:55:53;;;;;;;4.78;1.80;;;18.20;58.30;;;;;;5057770;28;20062;-67
2022/05/06 14:58:19;;;;;;;;;;;18.00;59.20;;;;;;5052729;28;20040;-66
2022/05/06 15:00:44;;;;;;;4.80;1.67;;;17.90;60.60;;;;;;5056621;28;19943;-66
2022/05/06 15:03:10;;;;;;;;;;;17.80;62.40;;;;;;5050084;28;20106;-66
2022/05/06 15:05:36;;;;;;;3.80;1.88;;;17.80;63.30;;;;;;5058738;28;20011;-66
2022/05/06 15:08:01;;;;;;;;;;;17.60;61.50;;;;;;5056218;28;20786;-66
2022/05/06 15:10:27;;;;;;;3.97;1.77;;;17.50;62.90;;;;;;5053389;28;19963;-66
2022/05/06 15:12:53;;;;;;;3.95;1.88;;;17.40;59.80;;;;;;5062224;28;20392;-66
2022/05/06 15:15:19;;;;;;;;;;;17.50;62.20;;;;;;5059921;28;20033;-66
2022/05/06 15:17:45;;;;;;;4.35;2.00;;;17.50;61.50;;;;;;5046916;28;19929;-67
2022/05/06 15:20:11;;;;;;;6.15;1.75;;;17.40;62.40;;;;;;5051673;28;20665;-66
2022/05/06 15:22:37;;;;;;;4.60;2.17;;;17.50;60.70;;;;;;5055754;28;20055;-67